createdAt,value
2017-08-18T10:05:34.337Z,56.5
2017-08-18T10:16:55.804Z,55.9
2017-08-18T10:30:48.173Z,55.5
2017-08-18T10:32:00.855Z,55.2
2017-08-18T10:33:13.255Z,55.1
2017-08-18T10:35:44.255Z,54.7
2017-08-18T10:38:12.157Z,54.6
2017-08-18T10:39:24.803Z,54.6
2017-08-18T10:40:37.134Z,54.5
2017-08-18T10:41:49.618Z,54.5
2017-08-18T10:43:02.011Z,54.5
2017-08-18T10:44:14.222Z,54.5
2017-08-18T10:45:26.461Z,54.5
2017-08-18T10:47:58.351Z,54.5
2017-08-18T10:49:10.705Z,54.4
2017-08-18T10:50:23.292Z,54.3
2017-08-18T10:51:35.536Z,54.3
2017-08-18T10:52:48.063Z,54.3
2017-08-18T10:54:00.685Z,54.2
2017-08-18T10:55:13.143Z,54.2
2017-08-18T10:58:16.699Z,54.4
2017-08-18T10:59:29.165Z,54.6
2017-08-18T11:00:41.290Z,54.8
2017-08-18T11:01:53.858Z,55.0
2017-08-18T11:03:06.313Z,55.2
2017-08-18T11:04:18.791Z,55.3
2017-08-18T11:05:31.352Z,55.4
2017-08-18T11:06:47.136Z,55.6
2017-08-18T11:07:59.402Z,55.6
2017-08-18T11:09:11.874Z,55.7
2017-08-18T11:10:24.305Z,55.7
2017-08-18T11:11:36.512Z,55.8
2017-08-18T11:12:48.713Z,55.9
2017-08-18T11:14:30.130Z,56.0
2017-08-18T11:15:42.356Z,55.9
2017-08-18T11:16:54.876Z,56.1
2017-08-18T11:18:07.192Z,56.1
2017-08-18T11:19:19.446Z,56.1
2017-08-18T11:20:31.936Z,56.1
2017-08-18T11:21:45.475Z,56.2
2017-08-18T11:22:58.019Z,56.2
2017-08-18T11:24:10.512Z,56.2
2017-08-18T11:25:22.808Z,56.3
2017-08-18T11:26:38.416Z,56.3
2017-08-18T11:27:50.952Z,56.4
2017-08-18T11:29:03.149Z,56.4
2017-08-18T11:30:15.385Z,56.4
2017-08-18T11:31:27.559Z,56.4
2017-08-18T11:32:39.808Z,56.4
2017-08-18T11:33:52.085Z,56.5
2017-08-18T11:35:04.644Z,56.5
2017-08-18T11:36:20.204Z,56.5
2017-08-18T11:37:32.694Z,56.6
2017-08-18T11:38:44.977Z,56.6
2017-08-18T11:39:57.172Z,56.6
2017-08-18T11:41:09.640Z,56.6
2017-08-18T11:42:21.861Z,56.6
2017-08-18T11:43:34.472Z,56.6
2017-08-18T11:44:46.969Z,56.7
2017-08-18T11:46:02.244Z,56.7
2017-08-18T11:47:14.402Z,56.7
2017-08-18T11:48:26.889Z,56.8
2017-08-18T11:49:39.048Z,56.8
2017-08-18T11:50:51.507Z,56.8
2017-08-18T11:52:03.833Z,56.8
2017-08-18T11:53:16.439Z,56.9
2017-08-18T11:54:28.766Z,56.9
2017-08-18T11:55:41.043Z,56.8
2017-08-18T11:56:53.242Z,56.8
2017-08-18T11:58:05.512Z,56.8
2017-08-18T11:59:18.116Z,56.8
2017-08-18T12:00:30.578Z,56.8
2017-08-18T12:01:42.975Z,56.8
2017-08-18T12:02:55.454Z,57.0
2017-08-18T12:04:07.695Z,56.9
2017-08-18T12:05:19.899Z,56.9
2017-08-18T12:06:35.622Z,57.0
2017-08-18T12:07:48.179Z,57.0
2017-08-18T12:09:00.707Z,57.0
2017-08-18T12:10:12.905Z,57.0
2017-08-18T12:11:25.063Z,57.0
2017-08-18T12:12:37.581Z,57.0
2017-08-18T12:13:50.197Z,57.0
2017-08-18T12:15:02.355Z,57.0
2017-08-18T12:16:18.028Z,57.0
2017-08-18T12:17:30.509Z,57.0
2017-08-18T12:18:42.977Z,57.0
2017-08-18T12:19:55.586Z,57.0
2017-08-18T12:21:08.156Z,57.0
2017-08-18T12:22:20.283Z,57.1
2017-08-18T12:23:32.786Z,57.1
2017-08-18T12:24:45.415Z,57.1
2017-08-18T12:26:01.132Z,57.1
2017-08-18T12:27:13.216Z,57.1
2017-08-18T12:28:25.302Z,57.1
2017-08-18T12:29:37.824Z,57.1
2017-08-18T12:30:49.950Z,57.1
2017-08-18T12:32:02.394Z,57.1
2017-08-18T12:33:14.944Z,57.1
2017-08-18T12:34:27.396Z,57.2
2017-08-18T12:35:39.932Z,57.2
2017-08-18T12:36:52.446Z,57.1
2017-08-18T12:38:04.977Z,57.2
2017-08-18T12:39:17.496Z,57.2
2017-08-18T12:40:29.641Z,57.2
2017-08-18T12:41:41.874Z,57.2
2017-08-18T12:42:54.135Z,57.2
2017-08-18T12:44:06.371Z,57.2
2017-08-18T12:45:18.594Z,57.2
2017-08-18T12:46:57.515Z,57.2
2017-08-18T12:48:09.665Z,57.2
2017-08-18T12:49:22.231Z,57.2
2017-08-18T12:50:34.349Z,57.2
2017-08-18T12:51:46.628Z,57.2
2017-08-18T12:52:58.820Z,57.2
2017-08-18T12:54:11.032Z,57.2
2017-08-18T12:55:23.308Z,57.2
2017-08-18T12:56:39.343Z,57.2
2017-08-18T12:57:51.544Z,57.2
2017-08-18T12:59:04.111Z,57.1
2017-08-18T13:00:16.299Z,57.2
2017-08-18T13:01:28.805Z,57.2
2017-08-18T13:02:40.990Z,57.2
2017-08-18T13:03:53.534Z,57.2
2017-08-18T13:05:06.012Z,57.2
2017-08-18T13:06:44.624Z,57.2
2017-08-18T13:07:56.779Z,57.2
2017-08-18T13:09:09.217Z,57.2
2017-08-18T13:10:21.382Z,57.2
2017-08-18T13:11:33.620Z,57.2
2017-08-18T13:12:46.127Z,57.2
2017-08-18T13:13:58.629Z,57.2
2017-08-18T13:15:10.823Z,57.1
2017-08-18T13:16:27.204Z,57.2
2017-08-18T13:17:39.336Z,57.2
2017-08-18T13:18:51.800Z,57.2
2017-08-18T13:20:04.055Z,57.6
2017-08-18T13:21:16.242Z,59.9
2017-08-18T13:22:28.615Z,57.4
2017-08-18T13:23:40.746Z,57.0
2017-08-18T13:33:18.516Z,56.0
2017-08-18T13:34:30.802Z,55.8
2017-08-18T13:35:44.502Z,55.7
2017-08-18T13:36:57.150Z,55.4
2017-08-18T13:38:09.415Z,55.3
2017-08-18T13:39:21.959Z,55.1
2017-08-18T13:41:50.104Z,54.8
2017-08-18T13:43:02.333Z,54.7
2017-08-18T13:44:14.613Z,54.6
2017-08-18T13:45:26.969Z,54.5
2017-08-18T13:46:45.192Z,54.3
2017-08-18T13:47:57.772Z,54.2
2017-08-18T13:49:10.099Z,54.4
2017-08-18T13:50:51.941Z,53.9
2017-08-18T13:52:04.341Z,53.9
2017-08-18T13:54:32.872Z,53.7
2017-08-18T13:55:45.211Z,53.6
2017-08-18T13:56:57.962Z,53.6
2017-08-18T13:58:10.676Z,53.5
2017-08-18T14:00:38.886Z,53.4
2017-08-18T14:01:51.578Z,53.3
2017-08-18T14:03:04.552Z,53.3
2017-08-18T14:04:16.746Z,53.1
2017-08-18T14:06:48.104Z,53.0
2017-08-18T15:49:02.383Z,50.6
2017-08-18T15:52:46.501Z,50.6
2017-08-18T16:03:33.535Z,50.6
2017-08-18T16:04:45.874Z,50.6
2017-08-18T16:06:02.117Z,50.5
2017-08-18T16:07:14.248Z,50.6
2017-08-18T16:08:26.666Z,50.5
2017-08-18T16:09:39.075Z,50.4
2017-08-18T16:10:54.188Z,50.4
2017-08-18T16:12:06.349Z,50.4
2017-08-18T16:13:19.032Z,50.4
2017-08-18T16:14:32.489Z,50.4
2017-08-18T16:18:01.559Z,50.3
2017-08-18T16:20:30.230Z,50.3
2017-08-18T16:24:08.190Z,50.0
2017-08-18T17:01:38.332Z,50.2
2017-08-18T17:19:33.054Z,49.6
2017-08-18T17:21:13.301Z,50.3
2017-08-18T17:22:26.100Z,50.8
2017-08-18T17:25:11.463Z,51.5
2017-08-18T17:26:30.193Z,51.7
2017-08-18T17:27:43.132Z,51.9
2017-08-18T17:54:42.702Z,51.3
2017-08-18T17:55:55.422Z,51.4
